sensor_id;sensor_type;location;lat;lon;timestamp;P1;durP1;ratioP1;P2;durP2;ratioP2
4391;SDS011;2210;51.938;8.488;2022-12-18T00:00:55;6.37;;;4.13;;
4391;SDS011;2210;51.938;8.488;2022-12-18T00:04:55;6.23;;;4.90;;
4391;SDS011;2210;51.938;8.488;2022-12-18T00:08:56;6.43;;;4.87;;
4391;SDS011;2210;51.938;8.488;2022-12-18T00:12:57;5.67;;;4.40;;
4391;SDS011;2210;51.938;8.488;2022-12-18T00:17:01;4.57;;;4.17;;
4391;SDS011;2210;51.938;8.488;2022-12-18T00:21:02;5.20;;;4.30;;
4391;SDS011;2210;51.938;8.488;2022-12-18T00:25:07;5.40;;;4.20;;
4391;SDS011;2210;51.938;8.488;2022-12-18T00:29:12;5.73;;;4.20;;
4391;SDS011;2210;51.938;8.488;2022-12-18T00:33:15;5.80;;;4.10;;
4391;SDS011;2210;51.938;8.488;2022-12-18T00:37:17;4.93;;;3.33;;
4391;SDS011;2210;51.938;8.488;2022-12-18T00:41:20;4.20;;;3.80;;
4391;SDS011;2210;51.938;8.488;2022-12-18T00:45:40;3.37;;;3.03;;
4391;SDS011;2210;51.938;8.488;2022-12-18T00:49:41;4.00;;;2.97;;
4391;SDS011;2210;51.938;8.488;2022-12-18T00:53:44;3.93;;;3.10;;
4391;SDS011;2210;51.938;8.488;2022-12-18T00:57:47;3.33;;;2.97;;
4391;SDS011;2210;51.938;8.488;2022-12-18T01:01:50;3.73;;;3.43;;
4391;SDS011;2210;51.938;8.488;2022-12-18T01:05:59;3.50;;;3.20;;
4391;SDS011;2210;51.938;8.488;2022-12-18T01:09:59;2.83;;;2.63;;
4391;SDS011;2210;51.938;8.488;2022-12-18T01:14:00;3.10;;;2.80;;
4391;SDS011;2210;51.938;8.488;2022-12-18T01:18:00;3.13;;;2.93;;
4391;SDS011;2210;51.938;8.488;2022-12-18T01:22:06;2.50;;;2.30;;
4391;SDS011;2210;51.938;8.488;2022-12-18T01:26:11;4.27;;;3.00;;
4391;SDS011;2210;51.938;8.488;2022-12-18T01:30:13;3.70;;;3.20;;
4391;SDS011;2210;51.938;8.488;2022-12-18T01:34:17;3.53;;;2.93;;
4391;SDS011;2210;51.938;8.488;2022-12-18T01:38:23;3.00;;;2.73;;
4391;SDS011;2210;51.938;8.488;2022-12-18T01:42:24;4.43;;;2.90;;
4391;SDS011;2210;51.938;8.488;2022-12-18T01:46:26;4.23;;;2.70;;
4391;SDS011;2210;51.938;8.488;2022-12-18T01:50:33;3.10;;;2.80;;
4391;SDS011;2210;51.938;8.488;2022-12-18T01:54:35;5.43;;;2.50;;
4391;SDS011;2210;51.938;8.488;2022-12-18T02:02:41;4.40;;;2.80;;
4391;SDS011;2210;51.938;8.488;2022-12-18T02:06:44;3.03;;;2.83;;
4391;SDS011;2210;51.938;8.488;2022-12-18T02:11:04;3.23;;;2.90;;
4391;SDS011;2210;51.938;8.488;2022-12-18T02:28:31;3.30;;;2.80;;
4391;SDS011;2210;51.938;8.488;2022-12-18T02:32:40;4.00;;;2.80;;
4391;SDS011;2210;51.938;8.488;2022-12-18T02:36:45;2.57;;;2.37;;
4391;SDS011;2210;51.938;8.488;2022-12-18T02:40:48;2.73;;;2.53;;
4391;SDS011;2210;51.938;8.488;2022-12-18T02:44:52;6.03;;;2.60;;
4391;SDS011;2210;51.938;8.488;2022-12-18T02:48:53;4.20;;;2.40;;
4391;SDS011;2210;51.938;8.488;2022-12-18T03:01:57;5.80;;;2.40;;
4391;SDS011;2210;51.938;8.488;2022-12-18T03:10:25;2.97;;;2.47;;
4391;SDS011;2210;51.938;8.488;2022-12-18T03:14:35;4.43;;;2.03;;
4391;SDS011;2210;51.938;8.488;2022-12-18T03:18:46;6.70;;;2.60;;
4391;SDS011;2210;51.938;8.488;2022-12-18T03:22:54;2.87;;;2.67;;
4391;SDS011;2210;51.938;8.488;2022-12-18T03:27:05;2.30;;;2.20;;
4391;SDS011;2210;51.938;8.488;2022-12-18T03:31:12;2.50;;;2.30;;
4391;SDS011;2210;51.938;8.488;2022-12-18T03:35:18;2.13;;;1.93;;
4391;SDS011;2210;51.938;8.488;2022-12-18T03:39:24;2.30;;;2.10;;
4391;SDS011;2210;51.938;8.488;2022-12-18T03:43:41;2.53;;;2.20;;
4391;SDS011;2210;51.938;8.488;2022-12-18T03:52:14;3.80;;;2.27;;
4391;SDS011;2210;51.938;8.488;2022-12-18T03:56:21;1.70;;;1.60;;
4391;SDS011;2210;51.938;8.488;2022-12-18T04:00:30;3.03;;;2.17;;
4391;SDS011;2210;51.938;8.488;2022-12-18T04:04:31;2.17;;;1.97;;
4391;SDS011;2210;51.938;8.488;2022-12-18T04:08:46;3.13;;;1.80;;
4391;SDS011;2210;51.938;8.488;2022-12-18T04:12:47;2.80;;;2.10;;
4391;SDS011;2210;51.938;8.488;2022-12-18T04:16:50;2.10;;;2.00;;
4391;SDS011;2210;51.938;8.488;2022-12-18T04:20:50;4.53;;;2.40;;
4391;SDS011;2210;51.938;8.488;2022-12-18T04:24:51;2.63;;;2.43;;
4391;SDS011;2210;51.938;8.488;2022-12-18T04:28:51;2.27;;;2.10;;
4391;SDS011;2210;51.938;8.488;2022-12-18T04:32:51;2.47;;;2.27;;
4391;SDS011;2210;51.938;8.488;2022-12-18T04:36:51;2.80;;;2.40;;
4391;SDS011;2210;51.938;8.488;2022-12-18T04:40:55;2.33;;;2.17;;
4391;SDS011;2210;51.938;8.488;2022-12-18T04:45:04;2.30;;;2.10;;
4391;SDS011;2210;51.938;8.488;2022-12-18T04:49:05;2.57;;;2.07;;
4391;SDS011;2210;51.938;8.488;2022-12-18T04:53:05;4.13;;;2.73;;
4391;SDS011;2210;51.938;8.488;2022-12-18T04:57:09;2.97;;;2.67;;
4391;SDS011;2210;51.938;8.488;2022-12-18T05:01:13;2.20;;;2.10;;
4391;SDS011;2210;51.938;8.488;2022-12-18T05:05:14;2.30;;;2.10;;
4391;SDS011;2210;51.938;8.488;2022-12-18T05:09:18;2.47;;;2.27;;
4391;SDS011;2210;51.938;8.488;2022-12-18T05:13:21;2.77;;;2.53;;
4391;SDS011;2210;51.938;8.488;2022-12-18T05:17:21;2.53;;;2.33;;
4391;SDS011;2210;51.938;8.488;2022-12-18T05:21:21;7.03;;;2.80;;
4391;SDS011;2210;51.938;8.488;2022-12-18T05:25:22;2.60;;;2.40;;
4391;SDS011;2210;51.938;8.488;2022-12-18T05:29:28;3.10;;;2.90;;
4391;SDS011;2210;51.938;8.488;2022-12-18T05:33:30;3.20;;;2.80;;
4391;SDS011;2210;51.938;8.488;2022-12-18T05:37:32;2.70;;;2.50;;
4391;SDS011;2210;51.938;8.488;2022-12-18T05:41:32;2.90;;;2.60;;
4391;SDS011;2210;51.938;8.488;2022-12-18T05:45:36;2.73;;;2.53;;
4391;SDS011;2210;51.938;8.488;2022-12-18T05:49:38;3.07;;;2.50;;
4391;SDS011;2210;51.938;8.488;2022-12-18T05:53:38;3.47;;;3.17;;
4391;SDS011;2210;51.938;8.488;2022-12-18T05:57:39;3.03;;;2.83;;
4391;SDS011;2210;51.938;8.488;2022-12-18T06:01:39;2.93;;;2.73;;
4391;SDS011;2210;51.938;8.488;2022-12-18T06:05:40;3.80;;;2.37;;
4391;SDS011;2210;51.938;8.488;2022-12-18T06:09:42;4.57;;;3.03;;
4391;SDS011;2210;51.938;8.488;2022-12-18T06:13:42;2.70;;;2.50;;
4391;SDS011;2210;51.938;8.488;2022-12-18T06:17:49;5.53;;;3.13;;
4391;SDS011;2210;51.938;8.488;2022-12-18T06:21:49;3.90;;;3.10;;
4391;SDS011;2210;51.938;8.488;2022-12-18T06:25:53;4.20;;;3.50;;
4391;SDS011;2210;51.938;8.488;2022-12-18T06:29:53;3.40;;;2.87;;
4391;SDS011;2210;51.938;8.488;2022-12-18T06:33:54;2.70;;;2.50;;
4391;SDS011;2210;51.938;8.488;2022-12-18T06:37:54;4.17;;;3.00;;
4391;SDS011;2210;51.938;8.488;2022-12-18T06:41:54;3.00;;;2.73;;
4391;SDS011;2210;51.938;8.488;2022-12-18T06:45:59;2.90;;;2.70;;
4391;SDS011;2210;51.938;8.488;2022-12-18T06:50:00;3.27;;;2.97;;
4391;SDS011;2210;51.938;8.488;2022-12-18T06:54:00;5.50;;;3.10;;
4391;SDS011;2210;51.938;8.488;2022-12-18T06:58:00;2.97;;;2.70;;
4391;SDS011;2210;51.938;8.488;2022-12-18T07:02:01;4.30;;;2.80;;
4391;SDS011;2210;51.938;8.488;2022-12-18T07:06:01;3.15;;;2.85;;
4391;SDS011;2210;51.938;8.488;2022-12-18T07:10:02;4.47;;;2.93;;
4391;SDS011;2210;51.938;8.488;2022-12-18T07:14:02;3.50;;;3.20;;
4391;SDS011;2210;51.938;8.488;2022-12-18T07:18:03;3.40;;;3.10;;
4391;SDS011;2210;51.938;8.488;2022-12-18T07:22:06;3.30;;;3.00;;
4391;SDS011;2210;51.938;8.488;2022-12-18T07:26:10;4.20;;;3.40;;
4391;SDS011;2210;51.938;8.488;2022-12-18T07:30:15;3.70;;;3.30;;
4391;SDS011;2210;51.938;8.488;2022-12-18T07:34:18;5.40;;;3.43;;
4391;SDS011;2210;51.938;8.488;2022-12-18T07:38:21;2.90;;;2.60;;
4391;SDS011;2210;51.938;8.488;2022-12-18T07:42:22;3.23;;;2.93;;
4391;SDS011;2210;51.938;8.488;2022-12-18T07:46:31;4.03;;;3.10;;
4391;SDS011;2210;51.938;8.488;2022-12-18T07:50:31;3.50;;;3.20;;
4391;SDS011;2210;51.938;8.488;2022-12-18T07:54:31;5.00;;;3.40;;
4391;SDS011;2210;51.938;8.488;2022-12-18T07:58:32;3.67;;;2.53;;
4391;SDS011;2210;51.938;8.488;2022-12-18T08:02:33;3.17;;;2.83;;
4391;SDS011;2210;51.938;8.488;2022-12-18T08:06:37;3.00;;;2.50;;
4391;SDS011;2210;51.938;8.488;2022-12-18T08:10:40;6.10;;;3.83;;
4391;SDS011;2210;51.938;8.488;2022-12-18T08:14:40;3.77;;;3.23;;
4391;SDS011;2210;51.938;8.488;2022-12-18T08:18:40;5.30;;;3.60;;
4391;SDS011;2210;51.938;8.488;2022-12-18T08:22:41;3.17;;;2.93;;
4391;SDS011;2210;51.938;8.488;2022-12-18T08:26:48;4.10;;;2.87;;
4391;SDS011;2210;51.938;8.488;2022-12-18T08:30:51;3.60;;;3.27;;
4391;SDS011;2210;51.938;8.488;2022-12-18T08:34:52;3.50;;;3.20;;
4391;SDS011;2210;51.938;8.488;2022-12-18T08:38:52;4.40;;;3.07;;
4391;SDS011;2210;51.938;8.488;2022-12-18T08:42:59;4.70;;;3.23;;
4391;SDS011;2210;51.938;8.488;2022-12-18T08:47:21;3.30;;;3.00;;
4391;SDS011;2210;51.938;8.488;2022-12-18T08:51:21;3.13;;;2.90;;
4391;SDS011;2210;51.938;8.488;2022-12-18T08:55:21;3.60;;;3.30;;
4391;SDS011;2210;51.938;8.488;2022-12-18T08:59:22;6.73;;;4.83;;
4391;SDS011;2210;51.938;8.488;2022-12-18T09:03:23;6.10;;;4.63;;
4391;SDS011;2210;51.938;8.488;2022-12-18T09:07:23;5.17;;;3.00;;
4391;SDS011;2210;51.938;8.488;2022-12-18T09:11:25;3.03;;;2.73;;
4391;SDS011;2210;51.938;8.488;2022-12-18T09:15:26;5.40;;;3.20;;
4391;SDS011;2210;51.938;8.488;2022-12-18T09:19:32;3.40;;;3.10;;
4391;SDS011;2210;51.938;8.488;2022-12-18T09:23:35;4.47;;;3.27;;
4391;SDS011;2210;51.938;8.488;2022-12-18T09:27:39;3.83;;;3.37;;
4391;SDS011;2210;51.938;8.488;2022-12-18T09:31:39;4.97;;;3.43;;
4391;SDS011;2210;51.938;8.488;2022-12-18T09:35:40;6.57;;;3.77;;
4391;SDS011;2210;51.938;8.488;2022-12-18T09:44:40;3.40;;;3.10;;
4391;SDS011;2210;51.938;8.488;2022-12-18T09:48:47;3.50;;;3.20;;
4391;SDS011;2210;51.938;8.488;2022-12-18T09:52:53;3.30;;;3.00;;
4391;SDS011;2210;51.938;8.488;2022-12-18T09:56:56;3.90;;;3.30;;
4391;SDS011;2210;51.938;8.488;2022-12-18T10:01:00;3.47;;;3.17;;
4391;SDS011;2210;51.938;8.488;2022-12-18T10:09:11;3.93;;;3.53;;
4391;SDS011;2210;51.938;8.488;2022-12-18T10:17:39;3.50;;;3.07;;
4391;SDS011;2210;51.938;8.488;2022-12-18T10:21:57;3.90;;;2.93;;
4391;SDS011;2210;51.938;8.488;2022-12-18T10:26:14;3.07;;;2.77;;
4391;SDS011;2210;51.938;8.488;2022-12-18T10:30:18;3.67;;;2.93;;
4391;SDS011;2210;51.938;8.488;2022-12-18T10:34:21;3.67;;;3.20;;
4391;SDS011;2210;51.938;8.488;2022-12-18T10:38:22;4.13;;;2.77;;
4391;SDS011;2210;51.938;8.488;2022-12-18T10:42:25;3.43;;;3.13;;
4391;SDS011;2210;51.938;8.488;2022-12-18T10:46:25;3.60;;;2.80;;
4391;SDS011;2210;51.938;8.488;2022-12-18T10:50:27;3.13;;;2.73;;
4391;SDS011;2210;51.938;8.488;2022-12-18T10:54:29;2.40;;;2.20;;
4391;SDS011;2210;51.938;8.488;2022-12-18T10:58:33;3.30;;;3.00;;
4391;SDS011;2210;51.938;8.488;2022-12-18T11:02:36;3.70;;;3.20;;
4391;SDS011;2210;51.938;8.488;2022-12-18T11:06:51;3.70;;;2.47;;
4391;SDS011;2210;51.938;8.488;2022-12-18T11:11:19;2.87;;;2.50;;
4391;SDS011;2210;51.938;8.488;2022-12-18T11:15:23;3.57;;;2.60;;
4391;SDS011;2210;51.938;8.488;2022-12-18T11:23:34;3.67;;;2.37;;
4391;SDS011;2210;51.938;8.488;2022-12-18T11:27:36;2.50;;;2.30;;
4391;SDS011;2210;51.938;8.488;2022-12-18T11:31:37;2.97;;;2.67;;
4391;SDS011;2210;51.938;8.488;2022-12-18T11:35:48;2.33;;;2.10;;
4391;SDS011;2210;51.938;8.488;2022-12-18T11:39:56;3.43;;;3.13;;
4391;SDS011;2210;51.938;8.488;2022-12-18T11:44:01;3.20;;;2.63;;
4391;SDS011;2210;51.938;8.488;2022-12-18T11:48:12;3.23;;;2.43;;
4391;SDS011;2210;51.938;8.488;2022-12-18T11:56:54;2.30;;;2.10;;
4391;SDS011;2210;51.938;8.488;2022-12-18T12:01:06;4.20;;;3.23;;
4391;SDS011;2210;51.938;8.488;2022-12-18T12:05:18;3.80;;;2.83;;
4391;SDS011;2210;51.938;8.488;2022-12-18T12:09:31;4.00;;;2.80;;
4391;SDS011;2210;51.938;8.488;2022-12-18T12:26:59;3.30;;;2.93;;
4391;SDS011;2210;51.938;8.488;2022-12-18T12:31:23;2.63;;;2.43;;
4391;SDS011;2210;51.938;8.488;2022-12-18T12:40:11;3.67;;;2.20;;
4391;SDS011;2210;51.938;8.488;2022-12-18T12:44:27;3.10;;;2.57;;
4391;SDS011;2210;51.938;8.488;2022-12-18T12:48:35;3.30;;;2.33;;
4391;SDS011;2210;51.938;8.488;2022-12-18T12:52:46;1.90;;;1.80;;
4391;SDS011;2210;51.938;8.488;2022-12-18T13:01:09;2.90;;;2.60;;
4391;SDS011;2210;51.938;8.488;2022-12-18T13:14:10;2.77;;;2.00;;
4391;SDS011;2210;51.938;8.488;2022-12-18T13:18:24;2.60;;;2.40;;
4391;SDS011;2210;51.938;8.488;2022-12-18T13:22:28;2.97;;;2.33;;
4391;SDS011;2210;51.938;8.488;2022-12-18T13:26:50;1.80;;;1.70;;
4391;SDS011;2210;51.938;8.488;2022-12-18T13:30:56;2.73;;;1.90;;
4391;SDS011;2210;51.938;8.488;2022-12-18T13:39:38;2.97;;;2.70;;
4391;SDS011;2210;51.938;8.488;2022-12-18T13:43:39;2.13;;;1.93;;
4391;SDS011;2210;51.938;8.488;2022-12-18T13:47:43;2.50;;;2.30;;
4391;SDS011;2210;51.938;8.488;2022-12-18T13:51:44;2.63;;;2.20;;
4391;SDS011;2210;51.938;8.488;2022-12-18T13:55:49;2.20;;;1.83;;
4391;SDS011;2210;51.938;8.488;2022-12-18T13:59:49;2.40;;;2.20;;
4391;SDS011;2210;51.938;8.488;2022-12-18T14:03:50;3.03;;;2.80;;
4391;SDS011;2210;51.938;8.488;2022-12-18T14:07:51;2.90;;;2.43;;
4391;SDS011;2210;51.938;8.488;2022-12-18T14:11:52;2.47;;;2.27;;
4391;SDS011;2210;51.938;8.488;2022-12-18T14:16:15;2.40;;;2.20;;
4391;SDS011;2210;51.938;8.488;2022-12-18T14:20:17;3.07;;;2.50;;
4391;SDS011;2210;51.938;8.488;2022-12-18T14:24:18;2.33;;;2.13;;
4391;SDS011;2210;51.938;8.488;2022-12-18T14:28:20;2.83;;;1.90;;
4391;SDS011;2210;51.938;8.488;2022-12-18T14:32:29;2.73;;;2.37;;
4391;SDS011;2210;51.938;8.488;2022-12-18T14:36:39;2.23;;;2.03;;
4391;SDS011;2210;51.938;8.488;2022-12-18T14:41:10;2.60;;;2.20;;
4391;SDS011;2210;51.938;8.488;2022-12-18T14:49:48;2.43;;;2.23;;
4391;SDS011;2210;51.938;8.488;2022-12-18T14:57:53;4.17;;;2.77;;
4391;SDS011;2210;51.938;8.488;2022-12-18T15:01:57;3.13;;;2.60;;
4391;SDS011;2210;51.938;8.488;2022-12-18T15:06:14;2.90;;;2.20;;
4391;SDS011;2210;51.938;8.488;2022-12-18T15:18:32;3.10;;;2.80;;
4391;SDS011;2210;51.938;8.488;2022-12-18T15:22:44;5.33;;;3.40;;
4391;SDS011;2210;51.938;8.488;2022-12-18T15:26:50;4.30;;;3.57;;
4391;SDS011;2210;51.938;8.488;2022-12-18T15:30:57;3.80;;;3.40;;
4391;SDS011;2210;51.938;8.488;2022-12-18T15:35:15;3.80;;;3.07;;
4391;SDS011;2210;51.938;8.488;2022-12-18T15:39:16;3.40;;;3.10;;
4391;SDS011;2210;51.938;8.488;2022-12-18T15:43:23;4.00;;;2.80;;
4391;SDS011;2210;51.938;8.488;2022-12-18T15:47:36;8.93;;;3.53;;
4391;SDS011;2210;51.938;8.488;2022-12-18T15:51:36;3.80;;;3.50;;
4391;SDS011;2210;51.938;8.488;2022-12-18T15:55:38;3.97;;;3.50;;
4391;SDS011;2210;51.938;8.488;2022-12-18T16:00:03;4.60;;;3.60;;
4391;SDS011;2210;51.938;8.488;2022-12-18T16:04:13;4.00;;;3.60;;
4391;SDS011;2210;51.938;8.488;2022-12-18T16:08:15;4.73;;;4.00;;
4391;SDS011;2210;51.938;8.488;2022-12-18T16:12:21;4.17;;;3.60;;
4391;SDS011;2210;51.938;8.488;2022-12-18T16:16:24;3.87;;;3.07;;
4391;SDS011;2210;51.938;8.488;2022-12-18T16:20:30;4.30;;;3.60;;
4391;SDS011;2210;51.938;8.488;2022-12-18T16:24:31;4.70;;;4.23;;
4391;SDS011;2210;51.938;8.488;2022-12-18T16:28:33;4.63;;;4.13;;
4391;SDS011;2210;51.938;8.488;2022-12-18T16:32:36;8.40;;;5.13;;
4391;SDS011;2210;51.938;8.488;2022-12-18T16:36:36;6.57;;;4.30;;
4391;SDS011;2210;51.938;8.488;2022-12-18T16:40:37;6.37;;;4.20;;
4391;SDS011;2210;51.938;8.488;2022-12-18T16:44:57;4.50;;;3.30;;
4391;SDS011;2210;51.938;8.488;2022-12-18T16:49:00;6.35;;;4.95;;
4391;SDS011;2210;51.938;8.488;2022-12-18T16:53:01;6.57;;;4.87;;
4391;SDS011;2210;51.938;8.488;2022-12-18T16:57:04;6.27;;;4.77;;
4391;SDS011;2210;51.938;8.488;2022-12-18T17:01:08;11.50;;;7.73;;
4391;SDS011;2210;51.938;8.488;2022-12-18T17:10:05;7.63;;;5.20;;
4391;SDS011;2210;51.938;8.488;2022-12-18T17:14:06;8.53;;;6.10;;
4391;SDS011;2210;51.938;8.488;2022-12-18T17:18:11;8.40;;;6.10;;
4391;SDS011;2210;51.938;8.488;2022-12-18T17:22:14;9.70;;;6.97;;
4391;SDS011;2210;51.938;8.488;2022-12-18T17:26:14;5.80;;;5.10;;
4391;SDS011;2210;51.938;8.488;2022-12-18T17:30:14;5.70;;;4.77;;
4391;SDS011;2210;51.938;8.488;2022-12-18T17:34:15;11.53;;;5.23;;
4391;SDS011;2210;51.938;8.488;2022-12-18T17:38:15;9.70;;;5.60;;
4391;SDS011;2210;51.938;8.488;2022-12-18T17:42:15;9.13;;;6.63;;
4391;SDS011;2210;51.938;8.488;2022-12-18T17:46:16;9.87;;;7.20;;
4391;SDS011;2210;51.938;8.488;2022-12-18T17:50:16;8.67;;;5.37;;
4391;SDS011;2210;51.938;8.488;2022-12-18T17:54:16;9.77;;;8.23;;
4391;SDS011;2210;51.938;8.488;2022-12-18T17:58:17;7.68;;;5.65;;
4391;SDS011;2210;51.938;8.488;2022-12-18T18:02:20;11.40;;;7.55;;
4391;SDS011;2210;51.938;8.488;2022-12-18T18:06:23;7.90;;;5.77;;
4391;SDS011;2210;51.938;8.488;2022-12-18T18:10:23;10.60;;;8.07;;
4391;SDS011;2210;51.938;8.488;2022-12-18T18:14:30;11.37;;;6.83;;
4391;SDS011;2210;51.938;8.488;2022-12-18T18:18:30;9.37;;;7.20;;
4391;SDS011;2210;51.938;8.488;2022-12-18T18:22:31;10.77;;;7.83;;
4391;SDS011;2210;51.938;8.488;2022-12-18T18:26:33;10.50;;;7.57;;
4391;SDS011;2210;51.938;8.488;2022-12-18T18:30:43;8.90;;;7.17;;
4391;SDS011;2210;51.938;8.488;2022-12-18T18:34:43;11.30;;;8.10;;
4391;SDS011;2210;51.938;8.488;2022-12-18T18:38:43;7.30;;;6.60;;
4391;SDS011;2210;51.938;8.488;2022-12-18T18:42:43;8.40;;;6.03;;
4391;SDS011;2210;51.938;8.488;2022-12-18T18:46:44;11.23;;;7.70;;
4391;SDS011;2210;51.938;8.488;2022-12-18T18:50:53;12.23;;;7.33;;
4391;SDS011;2210;51.938;8.488;2022-12-18T18:54:54;11.13;;;5.73;;
4391;SDS011;2210;51.938;8.488;2022-12-18T18:58:55;14.65;;;9.73;;
4391;SDS011;2210;51.938;8.488;2022-12-18T19:02:55;11.77;;;8.60;;
4391;SDS011;2210;51.938;8.488;2022-12-18T19:06:55;14.30;;;9.27;;
4391;SDS011;2210;51.938;8.488;2022-12-18T19:10:56;11.10;;;6.80;;
4391;SDS011;2210;51.938;8.488;2022-12-18T19:15:05;13.30;;;9.57;;
4391;SDS011;2210;51.938;8.488;2022-12-18T19:19:09;20.03;;;8.50;;
4391;SDS011;2210;51.938;8.488;2022-12-18T19:23:10;14.07;;;8.93;;
4391;SDS011;2210;51.938;8.488;2022-12-18T19:27:13;14.07;;;9.40;;
4391;SDS011;2210;51.938;8.488;2022-12-18T19:31:17;10.90;;;8.20;;
4391;SDS011;2210;51.938;8.488;2022-12-18T19:35:18;6.00;;;5.37;;
4391;SDS011;2210;51.938;8.488;2022-12-18T19:39:18;12.63;;;7.70;;
4391;SDS011;2210;51.938;8.488;2022-12-18T19:43:18;6.63;;;4.93;;
4391;SDS011;2210;51.938;8.488;2022-12-18T19:47:25;13.50;;;9.70;;
4391;SDS011;2210;51.938;8.488;2022-12-18T19:51:26;14.17;;;10.00;;
4391;SDS011;2210;51.938;8.488;2022-12-18T19:55:30;9.97;;;7.50;;
4391;SDS011;2210;51.938;8.488;2022-12-18T19:59:30;18.20;;;11.17;;
4391;SDS011;2210;51.938;8.488;2022-12-18T20:03:31;12.73;;;7.67;;
4391;SDS011;2210;51.938;8.488;2022-12-18T20:07:32;15.10;;;9.80;;
4391;SDS011;2210;51.938;8.488;2022-12-18T20:11:33;8.13;;;6.70;;
4391;SDS011;2210;51.938;8.488;2022-12-18T20:15:34;12.40;;;7.90;;
4391;SDS011;2210;51.938;8.488;2022-12-18T20:19:34;12.93;;;8.33;;
4391;SDS011;2210;51.938;8.488;2022-12-18T20:23:35;18.60;;;10.67;;
4391;SDS011;2210;51.938;8.488;2022-12-18T20:27:35;8.33;;;6.97;;
4391;SDS011;2210;51.938;8.488;2022-12-18T20:31:35;18.47;;;11.00;;
4391;SDS011;2210;51.938;8.488;2022-12-18T20:35:36;14.53;;;10.00;;
4391;SDS011;2210;51.938;8.488;2022-12-18T20:39:36;14.30;;;9.90;;
4391;SDS011;2210;51.938;8.488;2022-12-18T20:43:37;17.10;;;12.40;;
4391;SDS011;2210;51.938;8.488;2022-12-18T20:47:38;15.53;;;10.50;;
4391;SDS011;2210;51.938;8.488;2022-12-18T20:51:41;19.70;;;11.73;;
4391;SDS011;2210;51.938;8.488;2022-12-18T20:55:45;11.40;;;7.90;;
4391;SDS011;2210;51.938;8.488;2022-12-18T20:59:45;17.40;;;11.37;;
4391;SDS011;2210;51.938;8.488;2022-12-18T21:03:54;18.90;;;12.10;;
4391;SDS011;2210;51.938;8.488;2022-12-18T21:07:58;17.03;;;10.10;;
4391;SDS011;2210;51.938;8.488;2022-12-18T21:11:58;14.73;;;10.53;;
4391;SDS011;2210;51.938;8.488;2022-12-18T21:16:17;16.40;;;11.33;;
4391;SDS011;2210;51.938;8.488;2022-12-18T21:20:21;15.37;;;10.40;;
4391;SDS011;2210;51.938;8.488;2022-12-18T21:24:21;20.60;;;12.23;;
4391;SDS011;2210;51.938;8.488;2022-12-18T21:28:22;15.97;;;11.03;;
4391;SDS011;2210;51.938;8.488;2022-12-18T21:32:25;13.10;;;8.93;;
4391;SDS011;2210;51.938;8.488;2022-12-18T21:36:25;13.83;;;8.33;;
4391;SDS011;2210;51.938;8.488;2022-12-18T21:40:38;17.07;;;12.07;;
4391;SDS011;2210;51.938;8.488;2022-12-18T21:44:38;21.40;;;11.27;;
4391;SDS011;2210;51.938;8.488;2022-12-18T21:48:42;16.53;;;10.20;;
4391;SDS011;2210;51.938;8.488;2022-12-18T21:52:49;24.50;;;13.10;;
4391;SDS011;2210;51.938;8.488;2022-12-18T22:00:59;9.53;;;6.63;;
4391;SDS011;2210;51.938;8.488;2022-12-18T22:05:02;20.00;;;14.00;;
4391;SDS011;2210;51.938;8.488;2022-12-18T22:09:03;20.30;;;12.90;;
4391;SDS011;2210;51.938;8.488;2022-12-18T22:13:05;7.23;;;5.40;;
4391;SDS011;2210;51.938;8.488;2022-12-18T22:17:05;11.00;;;6.30;;
4391;SDS011;2210;51.938;8.488;2022-12-18T22:21:06;18.10;;;11.13;;
4391;SDS011;2210;51.938;8.488;2022-12-18T22:25:06;20.47;;;12.23;;
4391;SDS011;2210;51.938;8.488;2022-12-18T22:29:12;14.83;;;9.73;;
4391;SDS011;2210;51.938;8.488;2022-12-18T22:33:33;13.63;;;9.83;;
4391;SDS011;2210;51.938;8.488;2022-12-18T22:37:37;13.10;;;9.27;;
4391;SDS011;2210;51.938;8.488;2022-12-18T22:41:37;18.83;;;11.20;;
4391;SDS011;2210;51.938;8.488;2022-12-18T22:45:40;15.70;;;10.57;;
4391;SDS011;2210;51.938;8.488;2022-12-18T22:49:41;15.60;;;10.67;;
4391;SDS011;2210;51.938;8.488;2022-12-18T22:53:44;15.50;;;9.57;;
4391;SDS011;2210;51.938;8.488;2022-12-18T22:57:45;20.60;;;13.40;;
4391;SDS011;2210;51.938;8.488;2022-12-18T23:01:50;16.17;;;11.03;;
4391;SDS011;2210;51.938;8.488;2022-12-18T23:06:06;19.10;;;12.47;;
4391;SDS011;2210;51.938;8.488;2022-12-18T23:10:07;18.00;;;11.20;;
4391;SDS011;2210;51.938;8.488;2022-12-18T23:14:11;17.20;;;12.17;;
4391;SDS011;2210;51.938;8.488;2022-12-18T23:18:11;16.30;;;10.60;;
4391;SDS011;2210;51.938;8.488;2022-12-18T23:22:12;17.30;;;11.57;;
4391;SDS011;2210;51.938;8.488;2022-12-18T23:26:22;17.43;;;12.37;;
4391;SDS011;2210;51.938;8.488;2022-12-18T23:30:23;13.43;;;9.50;;
4391;SDS011;2210;51.938;8.488;2022-12-18T23:34:24;18.70;;;11.93;;
4391;SDS011;2210;51.938;8.488;2022-12-18T23:38:24;16.40;;;10.77;;
4391;SDS011;2210;51.938;8.488;2022-12-18T23:42:24;16.30;;;10.97;;
4391;SDS011;2210;51.938;8.488;2022-12-18T23:46:25;17.80;;;11.40;;
4391;SDS011;2210;51.938;8.488;2022-12-18T23:50:33;16.20;;;10.30;;
4391;SDS011;2210;51.938;8.488;2022-12-18T23:54:34;23.43;;;14.07;;
4391;SDS011;2210;51.938;8.488;2022-12-18T23:58:35;16.77;;;10.57;;
